NCAR-RAP Real-Time Weather Data

Output produced by METARs form (30 April 2017  15:05 UTC)
found at http://weather.rap.ucar.edu/surface/
 
Conditions at: KVRB observed 30 April 2017  14:53 UTC
Temperature: 27.8°C (82°F)
Dewpoint: 21.7°C (71°F) [RH = 69%]
Pressure (altimeter): 30.14 inches Hg (1020.7 mb)
[Sea-level pressure: 1020.6 mb]
Winds: from the SE (130 degrees) at 22 MPH (19 knots; 9.9 m/s)
Visibility: 10 or more miles (16+ km)
Ceiling: at least 12,000 feet AGL
Clouds: scattered clouds at 2100 feet AGL
Present Weather: no significant weather observed at this time
KVRB 301453Z 13019KT 10SM SCT021 28/22 A3014 RMK AO2 PK WND 13026/1449 SLP206 T02780217 58001

Conditions at: KVRB observed 30 April 2017  13:53 UTC
Temperature: 27.2°C (81°F)
Dewpoint: 21.7°C (71°F) [RH = 72%]
Pressure (altimeter): 30.14 inches Hg (1020.7 mb)
[Sea-level pressure: 1020.6 mb]
Winds: from the SE (130 degrees) at 21 MPH (18 knots; 9.4 m/s)
gusting to 24 MPH (21 knots; 10.9 m/s)
Visibility: 10 or more miles (16+ km)
Ceiling: at least 12,000 feet AGL
Clouds: scattered clouds at 2000 feet AGL
Present Weather: no significant weather observed at this time
KVRB 301353Z COR 13018G21KT 10SM SCT020 27/22 A3014 RMK AO2 SLP206 T02720217

Conditions at: KVRB observed 30 April 2017  12:53 UTC
Temperature: 26.7°C (80°F)
Dewpoint: 21.7°C (71°F) [RH = 74%]
Pressure (altimeter): 30.15 inches Hg (1021.1 mb)
[Sea-level pressure: 1020.9 mb]
Winds: from the SE (140 degrees) at 20 MPH (17 knots; 8.8 m/s)
gusting to 24 MPH (21 knots; 10.9 m/s)
Visibility: 10 or more miles (16+ km)
Ceiling: at least 12,000 feet AGL
Clouds: sky clear below 12,000 feet AGL
Present Weather: no significant weather observed at this time
KVRB 301253Z 14017G21KT 10SM CLR 27/22 A3015 RMK AO2 SLP209 T02670217

Conditions at: KVRB observed 30 April 2017  11:53 UTC
Temperature: 25.0°C (77°F)
Dewpoint: 21.1°C (70°F) [RH = 79%]
Pressure (altimeter): 30.15 inches Hg (1021.1 mb)
[Sea-level pressure: 1020.7 mb]
Winds: from the SE (140 degrees) at 15 MPH (13 knots; 6.8 m/s)
Visibility: 10 or more miles (16+ km)
Ceiling: at least 12,000 feet AGL
Clouds: few clouds at 3400 feet AGL
Present Weather: no significant weather observed at this time
KVRB 301153Z 14013KT 10SM FEW034 25/21 A3015 RMK AO2 SLP207 70013 T02500211 10250 20244 53015

Conditions at: KVRB observed 30 April 2017  10:53 UTC
Temperature: 24.4°C (76°F)
Dewpoint: 21.1°C (70°F) [RH = 82%]
Pressure (altimeter): 30.13 inches Hg (1020.4 mb)
[Sea-level pressure: 1020.1 mb]
Winds: from the SE (140 degrees) at 14 MPH (12 knots; 6.2 m/s)
Visibility: 10 or more miles (16+ km)
Ceiling: at least 12,000 feet AGL
Clouds: sky clear below 12,000 feet AGL
Present Weather: automated observation with no human augmentation;
there may or may not be significant weather present at this time
KVRB 301053Z AUTO 14012KT 10SM CLR 24/21 A3013 RMK AO2 SLP201 T02440211

Conditions at: KVRB observed 30 April 2017  09:53 UTC
Temperature: 24.4°C (76°F)
Dewpoint: 20.6°C (69°F) [RH = 79%]
Pressure (altimeter): 30.11 inches Hg (1019.7 mb)
[Sea-level pressure: 1019.5 mb]
Winds: from the SE (130 degrees) at 16 MPH (14 knots; 7.3 m/s)
Visibility: 10 or more miles (16+ km)
Ceiling: at least 12,000 feet AGL
Clouds: sky clear below 12,000 feet AGL
Present Weather: automated observation with no human augmentation;
there may or may not be significant weather present at this time
KVRB 300953Z AUTO 13014KT 10SM CLR 24/21 A3011 RMK AO2 SLP195 T02440206

Conditions at: KVRB observed 30 April 2017  08:53 UTC
Temperature: 24.4°C (76°F)
Dewpoint: 21.1°C (70°F) [RH = 82%]
Pressure (altimeter): 30.10 inches Hg (1019.4 mb)
[Sea-level pressure: 1019.2 mb]
Winds: from the SE (130 degrees) at 16 MPH (14 knots; 7.3 m/s)
Visibility: 10 or more miles (16+ km)
Ceiling: at least 12,000 feet AGL
Clouds: sky clear below 12,000 feet AGL
Present Weather: automated observation with no human augmentation;
there may or may not be significant weather present at this time
KVRB 300853Z AUTO 13014KT 10SM CLR 24/21 A3010 RMK AO2 SLP192 T02440211 56008

Conditions at: KVRB observed 30 April 2017  07:53 UTC
Temperature: 24.4°C (76°F)
Dewpoint: 21.1°C (70°F) [RH = 82%]
Pressure (altimeter): 30.10 inches Hg (1019.4 mb)
[Sea-level pressure: 1019.2 mb]
Winds: from the SE (130 degrees) at 15 MPH (13 knots; 6.8 m/s)
gusting to 24 MPH (21 knots; 10.9 m/s)
Visibility: 10 or more miles (16+ km)
Ceiling: at least 12,000 feet AGL
Clouds: scattered clouds at 2300 feet AGL
Present Weather: automated observation with no human augmentation;
there may or may not be significant weather present at this time
KVRB 300753Z AUTO 13013G21KT 10SM SCT023 24/21 A3010 RMK AO2 SLP192 T02440211

Conditions at: KVRB observed 30 April 2017  06:53 UTC
Temperature: 24.4°C (76°F)
Dewpoint: 21.7°C (71°F) [RH = 85%]
Pressure (altimeter): 30.11 inches Hg (1019.7 mb)
[Sea-level pressure: 1019.6 mb]
Winds: from the SE (140 degrees) at 15 MPH (13 knots; 6.8 m/s)
Visibility: 10 or more miles (16+ km)
Ceiling: at least 12,000 feet AGL
Clouds: few clouds at 2100 feet AGL
Present Weather: automated observation with no human augmentation;
there may or may not be significant weather present at this time
KVRB 300653Z AUTO 14013KT 10SM FEW021 24/22 A3011 RMK AO2 SLP196 T02440217

Conditions at: KVRB observed 30 April 2017  05:53 UTC
Temperature: 25.0°C (77°F)
Dewpoint: 22.2°C (72°F) [RH = 84%]
Pressure (altimeter): 30.13 inches Hg (1020.4 mb)
[Sea-level pressure: 1020.0 mb]
Winds: from the SE (130 degrees) at 14 MPH (12 knots; 6.2 m/s)
gusting to 22 MPH (19 knots; 9.9 m/s)
Visibility: 10 or more miles (16+ km)
Ceiling: at least 12,000 feet AGL
Clouds: few clouds at 2300 feet AGL
Present Weather: no significant weather observed at this time
KVRB 300553Z 13012G19KT 10SM FEW023 25/22 A3013 RMK AO2 SLP200 60012 T02500222 10256 20239 58005

Conditions at: KVRB observed 30 April 2017  04:53 UTC
Temperature: 24.4°C (76°F)
Dewpoint: 22.8°C (73°F) [RH = 91%]
Pressure (altimeter): 30.13 inches Hg (1020.4 mb)
[Sea-level pressure: 1020.2 mb]
Winds: from the ESE (120 degrees) at 13 MPH (11 knots; 5.7 m/s)
Visibility: 10 or more miles (16+ km)
Ceiling: at least 12,000 feet AGL
Clouds: few clouds at 2500 feet AGL
Present Weather: no significant weather observed at this time
KVRB 300453Z 12011KT 10SM FEW025 24/23 A3013 RMK AO2 RAB13E33 SLP202 P0008 T02440228 403060239

Conditions at: KVRB observed 30 April 2017  04:46 UTC
Temperature: 24.4°C (76°F)
Dewpoint: 22.8°C (73°F) [RH = 91%]
Pressure (altimeter): 30.13 inches Hg (1020.4 mb)
Winds: from the SE (130 degrees) at 12 MPH (10 knots; 5.2 m/s)
Visibility: 9 miles (14 km)
Ceiling: at least 12,000 feet AGL
Clouds: few clouds at 1600 feet AGL
scattered clouds at 2300 feet AGL
scattered clouds at 3200 feet AGL
Present Weather: no significant weather observed at this time
KVRB 300446Z 13010KT 9SM FEW016 SCT023 SCT032 24/23 A3013 RMK AO2 RAB13E33 P0008 T02440228

Conditions at: KVRB observed 30 April 2017  04:30 UTC
Temperature: 24.4°C (76°F)
Dewpoint: 23.3°C (74°F) [RH = 94%]
Pressure (altimeter): 30.13 inches Hg (1020.4 mb)
Winds: from the SE (140 degrees) at 12 MPH (10 knots; 5.2 m/s)
Visibility: 6 miles (10 km)
Ceiling: 2200 feet AGL
Clouds: few clouds at 1500 feet AGL
broken clouds at 2200 feet AGL
overcast cloud deck at 6000 feet AGL
Present Weather: -RA BR  (light rain, mist)
KVRB 300430Z 14010KT 6SM -RA BR FEW015 BKN022 OVC060 24/23 A3013 RMK AO2 RAB13 P0008 T02440233

Conditions at: KVRB observed 30 April 2017  04:24 UTC
Temperature: 24.4°C (76°F)
Dewpoint: 23.3°C (74°F) [RH = 94%]
Pressure (altimeter): 30.14 inches Hg (1020.7 mb)
Winds: from the SE (140 degrees) at 12 MPH (10 knots; 5.2 m/s)
Visibility: 2.50 miles (4.02 km)
Ceiling: 4400 feet AGL
Clouds: scattered clouds at 1500 feet AGL
broken clouds at 4400 feet AGL
overcast cloud deck at 6000 feet AGL
Present Weather: RA BR  (rain, mist)
KVRB 300424Z 14010KT 2 1/2SM RA BR SCT015 BKN044 OVC060 24/23 A3014 RMK AO2 RAB13 P0007 T02440233

Conditions at: KVRB observed 30 April 2017  03:53 UTC
Temperature: 25.0°C (77°F)
Dewpoint: 22.8°C (73°F) [RH = 88%]
Pressure (altimeter): 30.14 inches Hg (1020.7 mb)
[Sea-level pressure: 1020.6 mb]
Winds: from the ESE (110 degrees) at 14 MPH (12 knots; 6.2 m/s)
gusting to 22 MPH (19 knots; 9.9 m/s)
Visibility: 9 miles (14 km)
Ceiling: 7000 feet AGL
Clouds: few clouds at 1500 feet AGL
scattered clouds at 2900 feet AGL
broken clouds at 7000 feet AGL
Present Weather: no significant weather observed at this time
KVRB 300353Z 11012G19KT 9SM FEW015 SCT029 BKN070 25/23 A3014 RMK AO2 SLP206 T02500228

Conditions at: KVRB observed 30 April 2017  03:43 UTC
Temperature: 25.0°C (77°F)
Dewpoint: 23.3°C (74°F) [RH = 90%]
Pressure (altimeter): 30.14 inches Hg (1020.7 mb)
Winds: from the ESE (120 degrees) at 13 MPH (11 knots; 5.7 m/s)
gusting to 23 MPH (20 knots; 10.4 m/s)
Visibility: 9 miles (14 km)
Ceiling: 2900 feet AGL
Clouds: few clouds at 1700 feet AGL
broken clouds at 2900 feet AGL
Present Weather: no significant weather observed at this time
KVRB 300343Z 12011G20KT 9SM FEW017 BKN029 25/23 A3014 RMK AO2 T02500233

Conditions at: KVRB observed 30 April 2017  03:27 UTC
Temperature: 25.0°C (77°F)
Dewpoint: 22.8°C (73°F) [RH = 88%]
Pressure (altimeter): 30.14 inches Hg (1020.7 mb)
Winds: from the ESE (110 degrees) at 13 MPH (11 knots; 5.7 m/s)
gusting to 21 MPH (18 knots; 9.4 m/s)
Visibility: 10 or more miles (16+ km)
Ceiling: 3000 feet AGL
Clouds: few clouds at 1900 feet AGL
few clouds at 2400 feet AGL
broken clouds at 3000 feet AGL
Present Weather: no significant weather observed at this time
KVRB 300327Z 11011G18KT 10SM FEW019 FEW024 BKN030 25/23 A3014 RMK AO2 T02500228

Conditions at: KVRB observed 30 April 2017  02:53 UTC
Temperature: 23.9°C (75°F)
Dewpoint: 21.7°C (71°F) [RH = 88%]
Pressure (altimeter): 30.14 inches Hg (1020.7 mb)
[Sea-level pressure: 1020.5 mb]
Winds: from the S (170 degrees) at 6 MPH (5 knots; 2.6 m/s)
Visibility: 10 or more miles (16+ km)
Ceiling: 2200 feet AGL
Clouds: scattered clouds at 1700 feet AGL
broken clouds at 2200 feet AGL
overcast cloud deck at 5500 feet AGL
Present Weather: no significant weather observed at this time
KVRB 300253Z 17005KT 10SM SCT017 BKN022 OVC055 24/22 A3014 RMK AO2 RAB31E41 SLP205 P0000 60004 T02390217 51007

Conditions at: KVRB observed 30 April 2017  01:53 UTC
Temperature: 25.0°C (77°F)
Dewpoint: 23.3°C (74°F) [RH = 90%]
Pressure (altimeter): 30.14 inches Hg (1020.7 mb)
[Sea-level pressure: 1020.5 mb]
Winds: from the E (100 degrees) at 10 MPH (9 knots; 4.7 m/s)
Visibility: 10 or more miles (16+ km)
Ceiling: at least 12,000 feet AGL
Clouds: scattered clouds at 3200 feet AGL
Present Weather: no significant weather observed at this time
KVRB 300153Z 10009KT 10SM SCT032 25/23 A3014 RMK AO2 RAE03 SLP205 P0001 T02500233

Conditions at: KVRB observed 30 April 2017  01:26 UTC
Temperature: 25.0°C (77°F)
Dewpoint: 22.8°C (73°F) [RH = 88%]
Pressure (altimeter): 30.14 inches Hg (1020.7 mb)
Winds: from the ESE (110 degrees) at 13 MPH (11 knots; 5.7 m/s)
Visibility: 10 or more miles (16+ km)
Ceiling: at least 12,000 feet AGL
Clouds: scattered clouds at 2100 feet AGL
Present Weather: no significant weather observed at this time
KVRB 300126Z 11011KT 10SM SCT021 25/23 A3014 RMK AO2 RAE03 P0001 T02500228

Conditions at: KVRB observed 30 April 2017  00:53 UTC
Temperature: 25.0°C (77°F)
Dewpoint: 23.3°C (74°F) [RH = 90%]
Pressure (altimeter): 30.13 inches Hg (1020.4 mb)
[Sea-level pressure: 1020.2 mb]
Winds: from the ESE (110 degrees) at 8 MPH (7 knots; 3.6 m/s)
Visibility: 4 miles (6 km)
Ceiling: 2100 feet AGL
Clouds: broken clouds at 2100 feet AGL
broken clouds at 3100 feet AGL
overcast cloud deck at 7000 feet AGL
Present Weather: RA BR  (rain, mist)
KVRB 300053Z 11007KT 4SM RA BR BKN021 BKN031 OVC070 25/23 A3013 RMK AO2 RAB36 SLP202 P0003 T02500233

Conditions at: KVRB observed 29 April 2017  23:53 UTC
Temperature: 25.0°C (77°F)
Dewpoint: 22.8°C (73°F) [RH = 88%]
Pressure (altimeter): 30.12 inches Hg (1020.1 mb)
[Sea-level pressure: 1019.8 mb]
Winds: from the ESE (110 degrees) at 12 MPH (10 knots; 5.2 m/s)
Visibility: 9 miles (14 km)
Ceiling: 3000 feet AGL
Clouds: few clouds at 1900 feet AGL
broken clouds at 3000 feet AGL
overcast cloud deck at 7000 feet AGL
Present Weather: no significant weather observed at this time
KVRB 292353Z 11010KT 9SM FEW019 BKN030 OVC070 25/23 A3012 RMK AO2 RAB03E39 SLP198 P0001 60001 T02500228 10306 20244 58001

Conditions at: KVRB observed 29 April 2017  22:53 UTC
Temperature: 26.7°C (80°F)
Dewpoint: 21.7°C (71°F) [RH = 74%]
Pressure (altimeter): 30.12 inches Hg (1020.1 mb)
[Sea-level pressure: 1019.9 mb]
Winds: from the ESE (120 degrees) at 15 MPH (13 knots; 6.8 m/s)
Visibility: 10 or more miles (16+ km)
Ceiling: at least 12,000 feet AGL
Clouds: few clouds at 2300 feet AGL
Present Weather: no significant weather observed at this time
KVRB 292253Z 12013KT 10SM FEW023 27/22 A3012 RMK AO2 SLP199 T02670217

Conditions at: KVRB observed 29 April 2017  21:53 UTC
Temperature: 27.8°C (82°F)
Dewpoint: 21.7°C (71°F) [RH = 69%]
Pressure (altimeter): 30.12 inches Hg (1020.1 mb)
[Sea-level pressure: 1019.8 mb]
Winds: from the ESE (120 degrees) at 16 MPH (14 knots; 7.3 m/s)
gusting to 24 MPH (21 knots; 10.9 m/s)
Visibility: 10 or more miles (16+ km)
Ceiling: 3400 feet AGL
Clouds: scattered clouds at 2300 feet AGL
broken clouds at 3400 feet AGL
Present Weather: no significant weather observed at this time
KVRB 292153Z 12014G21KT 10SM SCT023 BKN034 28/22 A3012 RMK AO2 SLP198 T02780217

Conditions at: KVRB observed 29 April 2017  21:01 UTC
Temperature: 27.8°C (82°F)
Dewpoint: 21.1°C (70°F) [RH = 67%]
Pressure (altimeter): 30.12 inches Hg (1020.1 mb)
Winds: from the ESE (110 degrees) at 13 MPH (11 knots; 5.7 m/s)
Visibility: 10 or more miles (16+ km)
Ceiling: 3400 feet AGL
Clouds: scattered clouds at 2300 feet AGL
broken clouds at 3400 feet AGL
Present Weather: automated observation with no human augmentation;
there may or may not be significant weather present at this time
KVRB 292101Z AUTO 11011KT 10SM SCT023 BKN034 28/21 A3012 RMK AO2 T02780211

Conditions at: KVRB observed 29 April 2017  20:53 UTC
Temperature: 28.3°C (83°F)
Dewpoint: 21.7°C (71°F) [RH = 67%]
Pressure (altimeter): 30.12 inches Hg (1020.1 mb)
[Sea-level pressure: 1019.8 mb]
Winds: from the ESE (120 degrees) at 13 MPH (11 knots; 5.7 m/s)
gusting to 22 MPH (19 knots; 9.9 m/s)
Visibility: 10 or more miles (16+ km)
Ceiling: 2800 feet AGL
Clouds: scattered clouds at 2300 feet AGL
broken clouds at 2800 feet AGL
broken clouds at 3400 feet AGL
Present Weather: automated observation with no human augmentation;
there may or may not be significant weather present at this time
KVRB 292053Z AUTO 12011G19KT 10SM SCT023 BKN028 BKN034 28/22 A3012 RMK AO2 SLP198 T02830217 58017

Conditions at: KVRB observed 29 April 2017  20:28 UTC
Temperature: 28.9°C (84°F)
Dewpoint: 21.7°C (71°F) [RH = 65%]
Pressure (altimeter): 30.12 inches Hg (1020.1 mb)
Winds: from the SE (130 degrees) at 16 MPH (14 knots; 7.3 m/s)
Visibility: 10 or more miles (16+ km)
Ceiling: 2400 feet AGL
Clouds: broken clouds at 2400 feet AGL
broken clouds at 2900 feet AGL
Present Weather: automated observation with no human augmentation;
there may or may not be significant weather present at this time
KVRB 292028Z AUTO 13014KT 10SM BKN024 BKN029 29/22 A3012 RMK AO2 T02890217

Conditions at: KVRB observed 29 April 2017  19:53 UTC
Temperature: 28.9°C (84°F)
Dewpoint: 21.1°C (70°F) [RH = 63%]
Pressure (altimeter): 30.14 inches Hg (1020.7 mb)
[Sea-level pressure: 1020.4 mb]
Winds: from the ESE (110 degrees) at 15 MPH (13 knots; 6.8 m/s)
gusting to 26 MPH (23 knots; 12.0 m/s)
Visibility: 10 or more miles (16+ km)
Ceiling: at least 12,000 feet AGL
Clouds: few clouds at 2400 feet AGL
Present Weather: no significant weather observed at this time
KVRB 291953Z 11013G23KT 10SM FEW024 29/21 A3014 RMK AO2 SLP204 T02890211

Conditions at: KVRB observed 29 April 2017  18:53 UTC
Temperature: 30.0°C (86°F)
Dewpoint: 21.1°C (70°F) [RH = 59%]
Pressure (altimeter): 30.15 inches Hg (1021.1 mb)
[Sea-level pressure: 1020.9 mb]
Winds: from the ESE (120 degrees) at 17 MPH (15 knots; 7.8 m/s)
Visibility: 10 or more miles (16+ km)
Ceiling: at least 12,000 feet AGL
Clouds: few clouds at 2500 feet AGL
Present Weather: no significant weather observed at this time
KVRB 291853Z 12015KT 10SM FEW025 30/21 A3015 RMK AO2 SLP209 T03000211

Conditions at: KVRB observed 29 April 2017  17:53 UTC
Temperature: 29.4°C (85°F)
Dewpoint: 20.6°C (69°F) [RH = 59%]
Pressure (altimeter): 30.17 inches Hg (1021.8 mb)
[Sea-level pressure: 1021.5 mb]
Winds: from the ESE (120 degrees) at 15 MPH (13 knots; 6.8 m/s)
gusting to 26 MPH (23 knots; 12.0 m/s)
Visibility: 10 or more miles (16+ km)
Ceiling: at least 12,000 feet AGL
Clouds: scattered clouds at 2400 feet AGL
Present Weather: no significant weather observed at this time
KVRB 291753Z 12013G23KT 10SM SCT024 29/21 A3017 RMK AO2 SLP215 T02940206 10306 20261 57005

Conditions at: KVRB observed 29 April 2017  16:53 UTC
Temperature: 30.0°C (86°F)
Dewpoint: 21.1°C (70°F) [RH = 59%]
Pressure (altimeter): 30.17 inches Hg (1021.8 mb)
[Sea-level pressure: 1021.6 mb]
Winds: from the ESE (120 degrees) at 16 MPH (14 knots; 7.3 m/s)
gusting to 23 MPH (20 knots; 10.4 m/s)
Visibility: 10 or more miles (16+ km)
Ceiling: at least 12,000 feet AGL
Clouds: scattered clouds at 2400 feet AGL
Present Weather: no significant weather observed at this time
KVRB 291653Z 12014G20KT 10SM SCT024 30/21 A3017 RMK AO2 SLP216 T03000211

Conditions at: KVRB observed 29 April 2017  15:53 UTC
Temperature: 29.4°C (85°F)
Dewpoint: 20.6°C (69°F) [RH = 59%]
Pressure (altimeter): 30.18 inches Hg (1022.1 mb)
[Sea-level pressure: 1022.0 mb]
Winds: from the SE (130 degrees) at 20 MPH (17 knots; 8.8 m/s)
gusting to 26 MPH (23 knots; 12.0 m/s)
Visibility: 10 or more miles (16+ km)
Ceiling: at least 12,000 feet AGL
Clouds: scattered clouds at 2500 feet AGL
Present Weather: no significant weather observed at this time
KVRB 291553Z 13017G23KT 10SM SCT025 29/21 A3018 RMK AO2 SLP220 T02940206

Conditions at: KVRB observed 29 April 2017  15:00 UTC
Temperature: 28.9°C (84°F)
Dewpoint: 21.1°C (70°F) [RH = 63%]
Pressure (altimeter): 30.18 inches Hg (1022.1 mb)
Winds: from the ESE (120 degrees) at 17 MPH (15 knots; 7.8 m/s)
Visibility: 10 or more miles (16+ km)
Ceiling: at least 12,000 feet AGL
Clouds: few clouds at 2400 feet AGL
Present Weather: no significant weather observed at this time
KVRB 291500Z 12015KT 10SM FEW024 29/21 A3018 RMK AO2 T02890211

Conditions at: KVRB observed 29 April 2017  14:53 UTC
Temperature: 28.9°C (84°F)
Dewpoint: 20.6°C (69°F) [RH = 61%]
Pressure (altimeter): 30.19 inches Hg (1022.4 mb)
[Sea-level pressure: 1022.0 mb]
Winds: from the SE (130 degrees) at 18 MPH (16 knots; 8.3 m/s)
Visibility: 10 or more miles (16+ km)
Ceiling: 2900 feet AGL
Clouds: scattered clouds at 2200 feet AGL
broken clouds at 2900 feet AGL
Present Weather: no significant weather observed at this time
KVRB 291453Z 13016KT 10SM SCT022 BKN029 29/21 A3019 RMK AO2 SLP220 T02890206 53007

Conditions at: KVRB observed 29 April 2017  13:53 UTC
Temperature: 27.8°C (82°F)
Dewpoint: 21.1°C (70°F) [RH = 67%]
Pressure (altimeter): 30.18 inches Hg (1022.1 mb)
[Sea-level pressure: 1021.8 mb]
Winds: from the SE (140 degrees) at 14 MPH (12 knots; 6.2 m/s)
Visibility: 10 or more miles (16+ km)
Ceiling: 2900 feet AGL
Clouds: scattered clouds at 2200 feet AGL
broken clouds at 2900 feet AGL
Present Weather: no significant weather observed at this time
KVRB 291353Z 14012KT 10SM SCT022 BKN029 28/21 A3018 RMK AO2 SLP218 T02780211

Conditions at: KVRB observed 29 April 2017  12:53 UTC
Temperature: 27.2°C (81°F)
Dewpoint: 21.7°C (71°F) [RH = 72%]
Pressure (altimeter): 30.17 inches Hg (1021.8 mb)
[Sea-level pressure: 1021.4 mb]
Winds: from the SE (130 degrees) at 17 MPH (15 knots; 7.8 m/s)
Visibility: 10 or more miles (16+ km)
Ceiling: at least 12,000 feet AGL
Clouds: scattered clouds at 2000 feet AGL
Present Weather: no significant weather observed at this time
KVRB 291253Z 13015KT 10SM SCT020 27/22 A3017 RMK AO2 SLP214 T02720217

Conditions at: KVRB observed 29 April 2017  11:53 UTC
Temperature: 25.6°C (78°F)
Dewpoint: 21.1°C (70°F) [RH = 76%]
Pressure (altimeter): 30.16 inches Hg (1021.4 mb)
[Sea-level pressure: 1021.3 mb]
Winds: from the SE (130 degrees) at 13 MPH (11 knots; 5.7 m/s)
Visibility: 10 or more miles (16+ km)
Ceiling: at least 12,000 feet AGL
Clouds: sky clear below 12,000 feet AGL
Present Weather: no significant weather observed at this time
KVRB 291153Z 13011KT 10SM CLR 26/21 A3016 RMK AO2 SLP213 T02560211 10256 20244 53016

Conditions at: KVRB observed 29 April 2017  10:53 UTC
Temperature: 24.4°C (76°F)
Dewpoint: 21.7°C (71°F) [RH = 85%]
Pressure (altimeter): 30.14 inches Hg (1020.7 mb)
[Sea-level pressure: 1020.4 mb]
Winds: from the SE (130 degrees) at 12 MPH (10 knots; 5.2 m/s)
Visibility: 10 or more miles (16+ km)
Ceiling: at least 12,000 feet AGL
Clouds: sky clear below 12,000 feet AGL
Present Weather: automated observation with no human augmentation;
there may or may not be significant weather present at this time
KVRB 291053Z AUTO 13010KT 10SM CLR 24/22 A3014 RMK AO2 SLP204 T02440217

Conditions at: KVRB observed 29 April 2017  09:53 UTC
Temperature: 25.0°C (77°F)
Dewpoint: 21.7°C (71°F) [RH = 82%]
Pressure (altimeter): 30.12 inches Hg (1020.1 mb)
[Sea-level pressure: 1019.9 mb]
Winds: from the SE (130 degrees) at 13 MPH (11 knots; 5.7 m/s)
Visibility: 10 or more miles (16+ km)
Ceiling: at least 12,000 feet AGL
Clouds: sky clear below 12,000 feet AGL
Present Weather: automated observation with no human augmentation;
there may or may not be significant weather present at this time
KVRB 290953Z AUTO 13011KT 10SM CLR 25/22 A3012 RMK AO2 SLP199 T02500217

Conditions at: KVRB observed 29 April 2017  08:53 UTC
Temperature: 25.0°C (77°F)
Dewpoint: 22.2°C (72°F) [RH = 84%]
Pressure (altimeter): 30.12 inches Hg (1020.1 mb)
[Sea-level pressure: 1019.7 mb]
Winds: from the SE (130 degrees) at 13 MPH (11 knots; 5.7 m/s)
Visibility: 10 or more miles (16+ km)
Ceiling: at least 12,000 feet AGL
Clouds: few clouds at 1800 feet AGL
Present Weather: automated observation with no human augmentation;
there may or may not be significant weather present at this time
KVRB 290853Z AUTO 13011KT 10SM FEW018 25/22 A3012 RMK AO2 SLP197 T02500222 55001

Conditions at: KVRB observed 29 April 2017  07:53 UTC
Temperature: 25.0°C (77°F)
Dewpoint: 22.2°C (72°F) [RH = 84%]
Pressure (altimeter): 30.11 inches Hg (1019.7 mb)
[Sea-level pressure: 1019.6 mb]
Winds: from the SE (130 degrees) at 12 MPH (10 knots; 5.2 m/s)
Visibility: 10 or more miles (16+ km)
Ceiling: at least 12,000 feet AGL
Clouds: sky clear below 12,000 feet AGL
Present Weather: automated observation with no human augmentation;
there may or may not be significant weather present at this time
KVRB 290753Z AUTO 13010KT 10SM CLR 25/22 A3011 RMK AO2 SLP196 T02500222

Conditions at: KVRB observed 29 April 2017  06:53 UTC
Temperature: 25.6°C (78°F)
Dewpoint: 22.8°C (73°F) [RH = 85%]
Pressure (altimeter): 30.11 inches Hg (1019.7 mb)
[Sea-level pressure: 1019.6 mb]
Winds: from the ESE (120 degrees) at 13 MPH (11 knots; 5.7 m/s)
Visibility: 10 or more miles (16+ km)
Ceiling: at least 12,000 feet AGL
Clouds: sky clear below 12,000 feet AGL
Present Weather: automated observation with no human augmentation;
there may or may not be significant weather present at this time
KVRB 290653Z AUTO 12011KT 10SM CLR 26/23 A3011 RMK AO2 SLP196 T02560228

Conditions at: KVRB observed 29 April 2017  05:53 UTC
Temperature: 25.6°C (78°F)
Dewpoint: 22.8°C (73°F) [RH = 85%]
Pressure (altimeter): 30.12 inches Hg (1020.1 mb)
[Sea-level pressure: 1019.8 mb]
Winds: from the SE (130 degrees) at 14 MPH (12 knots; 6.2 m/s)
Visibility: 10 or more miles (16+ km)
Ceiling: at least 12,000 feet AGL
Clouds: sky clear below 12,000 feet AGL
Present Weather: no significant weather observed at this time
KVRB 290553Z 13012KT 10SM CLR 26/23 A3012 RMK AO2 SLP198 T02560228 10261 20256 58004

Conditions at: KVRB observed 29 April 2017  04:53 UTC
Temperature: 26.1°C (79°F)
Dewpoint: 22.8°C (73°F) [RH = 82%]
Pressure (altimeter): 30.13 inches Hg (1020.4 mb)
[Sea-level pressure: 1020.1 mb]
Winds: from the SE (130 degrees) at 16 MPH (14 knots; 7.3 m/s)
Visibility: 10 or more miles (16+ km)
Ceiling: at least 12,000 feet AGL
Clouds: few clouds at 1700 feet AGL
Present Weather: no significant weather observed at this time
KVRB 290453Z 13014KT 10SM FEW017 26/23 A3013 RMK AO2 SLP201 T02610228 403110217

Conditions at: KVRB observed 29 April 2017  03:53 UTC
Temperature: 26.1°C (79°F)
Dewpoint: 23.3°C (74°F) [RH = 85%]
Pressure (altimeter): 30.14 inches Hg (1020.7 mb)
[Sea-level pressure: 1020.5 mb]
Winds: from the SE (130 degrees) at 14 MPH (12 knots; 6.2 m/s)
Visibility: 10 or more miles (16+ km)
Ceiling: at least 12,000 feet AGL
Clouds: few clouds at 2800 feet AGL
Present Weather: no significant weather observed at this time
KVRB 290353Z 13012KT 10SM FEW028 26/23 A3014 RMK AO2 SLP205 T02610233

Conditions at: KVRB observed 29 April 2017  02:53 UTC
Temperature: 26.1°C (79°F)
Dewpoint: 23.3°C (74°F) [RH = 85%]
Pressure (altimeter): 30.13 inches Hg (1020.4 mb)
[Sea-level pressure: 1020.3 mb]
Winds: from the ESE (120 degrees) at 12 MPH (10 knots; 5.2 m/s)
Visibility: 9 miles (14 km)
Ceiling: at least 12,000 feet AGL
Clouds: few clouds at 1800 feet AGL
Present Weather: no significant weather observed at this time
KVRB 290253Z 12010KT 9SM FEW018 26/23 A3013 RMK AO2 SLP203 T02610233 51013

Conditions at: KVRB observed 29 April 2017  01:53 UTC
Temperature: 25.6°C (78°F)
Dewpoint: 23.3°C (74°F) [RH = 87%]
Pressure (altimeter): 30.12 inches Hg (1020.1 mb)
[Sea-level pressure: 1020.0 mb]
Winds: from the ESE (120 degrees) at 12 MPH (10 knots; 5.2 m/s)
Visibility: 9 miles (14 km)
Ceiling: at least 12,000 feet AGL
Clouds: sky clear below 12,000 feet AGL
Present Weather: no significant weather observed at this time
KVRB 290153Z 12010KT 9SM CLR 26/23 A3012 RMK AO2 SLP200 T02560233

Conditions at: KVRB observed 29 April 2017  00:53 UTC
Temperature: 25.6°C (78°F)
Dewpoint: 22.8°C (73°F) [RH = 85%]
Pressure (altimeter): 30.11 inches Hg (1019.7 mb)
[Sea-level pressure: 1019.5 mb]
Winds: from the SE (130 degrees) at 15 MPH (13 knots; 6.8 m/s)
Visibility: 10 or more miles (16+ km)
Ceiling: at least 12,000 feet AGL
Clouds: sky clear below 12,000 feet AGL
Present Weather: no significant weather observed at this time
KVRB 290053Z 13013KT 10SM CLR 26/23 A3011 RMK AO2 SLP195 T02560228

Conditions at: KVRB observed 28 April 2017  23:53 UTC
Temperature: 26.1°C (79°F)
Dewpoint: 23.3°C (74°F) [RH = 85%]
Pressure (altimeter): 30.10 inches Hg (1019.4 mb)
[Sea-level pressure: 1019.0 mb]
Winds: from the ESE (120 degrees) at 13 MPH (11 knots; 5.7 m/s)
Visibility: 9 miles (14 km)
Ceiling: at least 12,000 feet AGL
Clouds: sky clear below 12,000 feet AGL
Present Weather: no significant weather observed at this time
KVRB 282353Z 12011KT 9SM CLR 26/23 A3010 RMK AO2 SLP190 T02610233 10306 20261 53006

Conditions at: KVRB observed 28 April 2017  22:53 UTC
Temperature: 27.2°C (81°F)
Dewpoint: 22.8°C (73°F) [RH = 77%]
Pressure (altimeter): 30.09 inches Hg (1019.0 mb)
[Sea-level pressure: 1018.8 mb]
Winds: from the ESE (120 degrees) at 15 MPH (13 knots; 6.8 m/s)
Visibility: 10 or more miles (16+ km)
Ceiling: at least 12,000 feet AGL
Clouds: few clouds at 1700 feet AGL
Present Weather: no significant weather observed at this time
KVRB 282253Z 12013KT 10SM FEW017 27/23 A3009 RMK AO2 SLP188 T02720228

Conditions at: KVRB observed 28 April 2017  21:53 UTC
Temperature: 28.3°C (83°F)
Dewpoint: 22.8°C (73°F) [RH = 72%]
Pressure (altimeter): 30.08 inches Hg (1018.7 mb)
[Sea-level pressure: 1018.6 mb]
Winds: from the ESE (120 degrees) at 20 MPH (17 knots; 8.8 m/s)
gusting to 25 MPH (22 knots; 11.4 m/s)
Visibility: 10 or more miles (16+ km)
Ceiling: at least 12,000 feet AGL
Clouds: few clouds at 1900 feet AGL
Present Weather: no significant weather observed at this time
KVRB 282153Z 12017G22KT 10SM FEW019 28/23 A3008 RMK AO2 SLP186 T02830228

Conditions at: KVRB observed 28 April 2017  20:53 UTC
Temperature: 29.4°C (85°F)
Dewpoint: 22.8°C (73°F) [RH = 68%]
Pressure (altimeter): 30.08 inches Hg (1018.7 mb)
[Sea-level pressure: 1018.4 mb]
Winds: from the ESE (120 degrees) at 21 MPH (18 knots; 9.4 m/s)
Visibility: 10 or more miles (16+ km)
Ceiling: at least 12,000 feet AGL
Clouds: sky clear below 12,000 feet AGL
Present Weather: automated observation with no human augmentation;
there may or may not be significant weather present at this time
KVRB 282053Z AUTO 12018KT 10SM CLR 29/23 A3008 RMK AO2 SLP184 T02940228 56008

Conditions at: KVRB observed 28 April 2017  19:53 UTC
Temperature: 29.4°C (85°F)
Dewpoint: 22.2°C (72°F) [RH = 65%]
Pressure (altimeter): 30.08 inches Hg (1018.7 mb)
[Sea-level pressure: 1018.5 mb]
Winds: from the ESE (120 degrees) at 20 MPH (17 knots; 8.8 m/s)
Visibility: 10 or more miles (16+ km)
Ceiling: at least 12,000 feet AGL
Clouds: sky clear below 12,000 feet AGL
Present Weather: no significant weather observed at this time
KVRB 281953Z 12017KT 10SM CLR 29/22 A3008 RMK AO2 SLP185 T02940222

Conditions at: KVRB observed 28 April 2017  18:53 UTC
Temperature: 30.0°C (86°F)
Dewpoint: 22.8°C (73°F) [RH = 65%]
Pressure (altimeter): 30.09 inches Hg (1019.0 mb)
[Sea-level pressure: 1018.9 mb]
Winds: from the ESE (120 degrees) at 20 MPH (17 knots; 8.8 m/s)
gusting to 28 MPH (24 knots; 12.5 m/s)
Visibility: 10 or more miles (16+ km)
Ceiling: at least 12,000 feet AGL
Clouds: few clouds at 1700 feet AGL
Present Weather: no significant weather observed at this time
KVRB 281853Z 12017G24KT 10SM FEW017 30/23 A3009 RMK AO2 SLP189 T03000228

Conditions at: KVRB observed 28 April 2017  17:53 UTC
Temperature: 30.0°C (86°F)
Dewpoint: 22.8°C (73°F) [RH = 65%]
Pressure (altimeter): 30.10 inches Hg (1019.4 mb)
[Sea-level pressure: 1019.2 mb]
Winds: from the SE (130 degrees) at 22 MPH (19 knots; 9.9 m/s)
gusting to 30 MPH (26 knots; 13.5 m/s)
Visibility: 10 or more miles (16+ km)
Ceiling: at least 12,000 feet AGL
Clouds: sky clear below 12,000 feet AGL
Present Weather: no significant weather observed at this time
KVRB 281753Z 13019G26KT 10SM CLR 30/23 A3010 RMK AO2 PK WND 15026/1749 SLP192 T03000228 10311 20250 58003

Conditions at: KVRB observed 28 April 2017  16:53 UTC
Temperature: 30.0°C (86°F)
Dewpoint: 22.8°C (73°F) [RH = 65%]
Pressure (altimeter): 30.11 inches Hg (1019.7 mb)
[Sea-level pressure: 1019.4 mb]
Winds: from the SE (140 degrees) at 15 MPH (13 knots; 6.8 m/s)
Visibility: 10 or more miles (16+ km)
Ceiling: at least 12,000 feet AGL
Clouds: few clouds at 1900 feet AGL
Present Weather: no significant weather observed at this time
KVRB 281653Z 14013KT 10SM FEW019 30/23 A3011 RMK AO2 SLP194 T03000228

Conditions at: KVRB observed 28 April 2017  15:53 UTC
Temperature: 29.4°C (85°F)
Dewpoint: 22.8°C (73°F) [RH = 68%]
Pressure (altimeter): 30.11 inches Hg (1019.7 mb)
[Sea-level pressure: 1019.6 mb]
Winds: from the ESE (120 degrees) at 17 MPH (15 knots; 7.8 m/s)
Visibility: 10 or more miles (16+ km)
Ceiling: at least 12,000 feet AGL
Clouds: sky clear below 12,000 feet AGL
Present Weather: no significant weather observed at this time
KVRB 281553Z 12015KT 10SM CLR 29/23 A3011 RMK AO2 SLP196 T02940228